Homewood, Illinois
Current Conditions -  °F | °C
As of 9:55 PM on Saturday 20 Dec 2014 (Local Time) from KIGQ Reporting Station
Overcast Overcast  
Wind Chill: 27°   Ceiling: 4900
Heat Index: 32°   Visibility: 10mi
Dew Point: 27°   Wind: 5mph
Humidity: 83%   Direction: 170°S
Pressure: 30.27"   Gusts: NA
Location:  41.56°N, 87.66°W
Report Text: KIGQ 210355Z AUTO 17004KT 10SM BKN049 OVC060 00/M03 A3027 RMK AO2 T10011027
Loading
Personal Weather Stations






























Interactive Weather Map New forecast layout! Learn more

10-Day Weather Forecast

Advertisements
Track Severe Weather on mobile